Tuthill, South Dakota
Current Conditions -  °F | °C
As of 10:52 AM on Sunday 21 Dec 2014 (Local Time) from KVTN Reporting Station
Clear Clear  
Wind Chill: 35°   Ceiling: Unl
Heat Index: 41°   Visibility: 10mi
Dew Point: 29°   Wind: 10mph
Humidity: 62%   Direction: 210°SSW
Pressure: 29.54"   Gusts: NA
Location:  43.16°N, 101.5°W
Report Text: KVTN 211752Z AUTO 21009KT 10SM CLR 05/M02 A2954 RMK AO2 SLP023 I6000 T00501017 10050 21061 58028
Loading
Personal Weather Stations






























Interactive Weather Map New forecast layout! Learn more

10-Day Weather Forecast

Advertisements
Track Severe Weather on mobile